ECO weather

Ecopetrol Heliport
Barrancabermeja, Santander Department, Colombia

Public forecast

Using degrees Celsius for public forecast. Weather courtesy of forecast.io.

Closest aviation weather report (METAR) to Ecopetrol Heliport

Report is more than 6 hours old.

Closest report is YariguĂ­es Airport, 4.7 nm (8.7 km) SE. Retrieved 2020/03/30 19:00 UTC (14 hours ago):

SKEJ 301900Z 03004KT 9999 FEW020 34/23 A2973

Closest aviation forecast (TAF) to Ecopetrol Heliport

Closest forecast is Palonegro Airport, 40.6 nm (75.3 km) E. Retrieved 2020/03/31 06:30 UTC (3 hours ago):

TAF SKBG 310430Z 3106/0106 VRB02KT 4000 BR SCT008 BKN080 TEMPO 3106/3111 3000 DZRA BR BKN007 TEMPO 3111/3114 2000 BCFG BKN005 BECMG 3115/3117 32008KT 5000 HZ TX27/3118Z TN18/3111Z